sensor_id;sensor_type;location;lat;lon;timestamp;temperature;humidity
16128;DHT22;8168;49.036;7.690;2023-03-11T00:00:15;3.50;99.90
16128;DHT22;8168;49.036;7.690;2023-03-11T00:02:50;3.20;99.90
16128;DHT22;8168;49.036;7.690;2023-03-11T00:05:30;3.20;99.90
16128;DHT22;8168;49.036;7.690;2023-03-11T00:08:02;3.20;99.90
16128;DHT22;8168;49.036;7.690;2023-03-11T00:10:37;3.20;99.90
16128;DHT22;8168;49.036;7.690;2023-03-11T00:13:11;3.20;99.90
16128;DHT22;8168;49.036;7.690;2023-03-11T00:15:45;3.20;99.90
16128;DHT22;8168;49.036;7.690;2023-03-11T00:18:16;3.20;99.90
16128;DHT22;8168;49.036;7.690;2023-03-11T00:20:47;3.20;99.90
16128;DHT22;8168;49.036;7.690;2023-03-11T00:23:18;3.10;99.90
16128;DHT22;8168;49.036;7.690;2023-03-11T00:25:49;3.20;99.90
16128;DHT22;8168;49.036;7.690;2023-03-11T00:28:19;3.10;99.90
16128;DHT22;8168;49.036;7.690;2023-03-11T00:30:54;3.10;99.90
16128;DHT22;8168;49.036;7.690;2023-03-11T00:33:25;3.00;99.90
16128;DHT22;8168;49.036;7.690;2023-03-11T00:35:55;3.00;99.90
16128;DHT22;8168;49.036;7.690;2023-03-11T00:38:26;3.00;99.90
16128;DHT22;8168;49.036;7.690;2023-03-11T00:40:56;3.00;99.90
16128;DHT22;8168;49.036;7.690;2023-03-11T00:43:30;3.00;99.90
16128;DHT22;8168;49.036;7.690;2023-03-11T00:46:01;3.00;99.90
16128;DHT22;8168;49.036;7.690;2023-03-11T00:48:34;3.00;99.90
16128;DHT22;8168;49.036;7.690;2023-03-11T00:51:06;2.90;99.90
16128;DHT22;8168;49.036;7.690;2023-03-11T00:53:37;2.90;99.90
16128;DHT22;8168;49.036;7.690;2023-03-11T00:56:09;2.80;99.90
16128;DHT22;8168;49.036;7.690;2023-03-11T00:58:42;2.70;99.90
16128;DHT22;8168;49.036;7.690;2023-03-11T01:01:16;2.80;99.90
16128;DHT22;8168;49.036;7.690;2023-03-11T01:03:47;2.80;99.90
16128;DHT22;8168;49.036;7.690;2023-03-11T01:06:18;2.80;99.90
16128;DHT22;8168;49.036;7.690;2023-03-11T01:08:48;2.80;99.90
16128;DHT22;8168;49.036;7.690;2023-03-11T01:11:19;2.80;99.90
16128;DHT22;8168;49.036;7.690;2023-03-11T01:13:50;2.80;99.90
16128;DHT22;8168;49.036;7.690;2023-03-11T01:16:20;2.80;99.90
16128;DHT22;8168;49.036;7.690;2023-03-11T01:18:51;2.80;99.90
16128;DHT22;8168;49.036;7.690;2023-03-11T01:21:22;2.80;99.90
16128;DHT22;8168;49.036;7.690;2023-03-11T01:23:52;2.80;99.90
16128;DHT22;8168;49.036;7.690;2023-03-11T01:26:23;2.80;99.90
16128;DHT22;8168;49.036;7.690;2023-03-11T01:28:53;2.80;99.90
16128;DHT22;8168;49.036;7.690;2023-03-11T01:31:24;2.70;99.90
16128;DHT22;8168;49.036;7.690;2023-03-11T01:33:55;2.70;99.90
16128;DHT22;8168;49.036;7.690;2023-03-11T01:36:25;2.70;99.90
16128;DHT22;8168;49.036;7.690;2023-03-11T01:38:56;2.70;99.90
16128;DHT22;8168;49.036;7.690;2023-03-11T01:41:26;2.70;99.90
16128;DHT22;8168;49.036;7.690;2023-03-11T01:43:57;2.70;99.90
16128;DHT22;8168;49.036;7.690;2023-03-11T01:46:38;2.70;99.90
16128;DHT22;8168;49.036;7.690;2023-03-11T01:49:29;2.70;99.90
16128;DHT22;8168;49.036;7.690;2023-03-11T01:52:03;2.60;99.90
16128;DHT22;8168;49.036;7.690;2023-03-11T01:54:38;2.60;99.90
16128;DHT22;8168;49.036;7.690;2023-03-11T01:57:12;2.60;99.90
16128;DHT22;8168;49.036;7.690;2023-03-11T01:59:52;2.60;99.90
16128;DHT22;8168;49.036;7.690;2023-03-11T02:02:35;2.60;99.90
16128;DHT22;8168;49.036;7.690;2023-03-11T02:05:06;2.50;99.90
16128;DHT22;8168;49.036;7.690;2023-03-11T02:07:39;2.50;99.90
16128;DHT22;8168;49.036;7.690;2023-03-11T02:10:11;2.50;99.90
16128;DHT22;8168;49.036;7.690;2023-03-11T02:12:43;2.50;99.90
16128;DHT22;8168;49.036;7.690;2023-03-11T02:15:15;2.50;99.90
16128;DHT22;8168;49.036;7.690;2023-03-11T02:17:46;2.50;99.90
16128;DHT22;8168;49.036;7.690;2023-03-11T02:20:28;2.50;99.90
16128;DHT22;8168;49.036;7.690;2023-03-11T02:23:01;2.50;99.90
16128;DHT22;8168;49.036;7.690;2023-03-11T02:25:51;2.40;99.90
16128;DHT22;8168;49.036;7.690;2023-03-11T02:28:24;2.40;99.90
16128;DHT22;8168;49.036;7.690;2023-03-11T02:30:57;2.40;99.90
16128;DHT22;8168;49.036;7.690;2023-03-11T02:33:30;2.40;99.90
16128;DHT22;8168;49.036;7.690;2023-03-11T02:36:02;2.70;99.90
16128;DHT22;8168;49.036;7.690;2023-03-11T02:38:33;2.30;99.90
16128;DHT22;8168;49.036;7.690;2023-03-11T02:41:05;2.30;99.90
16128;DHT22;8168;49.036;7.690;2023-03-11T02:43:45;2.20;99.90
16128;DHT22;8168;49.036;7.690;2023-03-11T02:46:16;2.20;99.90
16128;DHT22;8168;49.036;7.690;2023-03-11T02:48:48;2.20;99.90
16128;DHT22;8168;49.036;7.690;2023-03-11T02:51:19;2.20;99.90
16128;DHT22;8168;49.036;7.690;2023-03-11T02:53:53;2.20;99.90
16128;DHT22;8168;49.036;7.690;2023-03-11T02:56:24;2.20;99.90
16128;DHT22;8168;49.036;7.690;2023-03-11T02:58:55;2.20;99.90
16128;DHT22;8168;49.036;7.690;2023-03-11T03:01:25;2.20;99.90
16128;DHT22;8168;49.036;7.690;2023-03-11T03:03:56;2.20;99.90
16128;DHT22;8168;49.036;7.690;2023-03-11T03:06:27;2.20;99.90
16128;DHT22;8168;49.036;7.690;2023-03-11T03:09:00;2.20;99.90
16128;DHT22;8168;49.036;7.690;2023-03-11T03:11:31;2.10;99.90
16128;DHT22;8168;49.036;7.690;2023-03-11T03:14:02;2.20;99.90
16128;DHT22;8168;49.036;7.690;2023-03-11T03:16:32;2.10;99.90
16128;DHT22;8168;49.036;7.690;2023-03-11T03:19:03;2.10;99.90
16128;DHT22;8168;49.036;7.690;2023-03-11T03:21:34;2.10;99.90
16128;DHT22;8168;49.036;7.690;2023-03-11T03:24:04;2.10;99.90
16128;DHT22;8168;49.036;7.690;2023-03-11T03:26:35;2.10;99.90
16128;DHT22;8168;49.036;7.690;2023-03-11T03:29:06;2.00;99.90
16128;DHT22;8168;49.036;7.690;2023-03-11T03:31:38;2.00;99.90
16128;DHT22;8168;49.036;7.690;2023-03-11T03:34:09;2.30;99.90
16128;DHT22;8168;49.036;7.690;2023-03-11T03:36:40;1.90;99.90
16128;DHT22;8168;49.036;7.690;2023-03-11T03:39:11;1.90;99.90
16128;DHT22;8168;49.036;7.690;2023-03-11T03:41:41;1.80;99.90
16128;DHT22;8168;49.036;7.690;2023-03-11T03:44:12;1.90;99.90
16128;DHT22;8168;49.036;7.690;2023-03-11T03:46:43;1.80;99.90
16128;DHT22;8168;49.036;7.690;2023-03-11T03:49:13;1.80;99.90
16128;DHT22;8168;49.036;7.690;2023-03-11T03:51:44;1.80;99.90
16128;DHT22;8168;49.036;7.690;2023-03-11T03:54:14;1.70;99.90
16128;DHT22;8168;49.036;7.690;2023-03-11T03:56:45;1.70;99.90
16128;DHT22;8168;49.036;7.690;2023-03-11T03:59:16;1.60;99.90
16128;DHT22;8168;49.036;7.690;2023-03-11T04:01:46;1.60;99.90
16128;DHT22;8168;49.036;7.690;2023-03-11T04:04:17;1.50;99.90
16128;DHT22;8168;49.036;7.690;2023-03-11T04:06:47;1.50;99.90
16128;DHT22;8168;49.036;7.690;2023-03-11T04:09:18;1.50;99.90
16128;DHT22;8168;49.036;7.690;2023-03-11T04:11:49;1.50;99.90
16128;DHT22;8168;49.036;7.690;2023-03-11T04:14:20;1.50;99.90
16128;DHT22;8168;49.036;7.690;2023-03-11T04:16:50;1.50;99.90
16128;DHT22;8168;49.036;7.690;2023-03-11T04:19:21;1.50;99.90
16128;DHT22;8168;49.036;7.690;2023-03-11T04:21:51;1.50;99.90
16128;DHT22;8168;49.036;7.690;2023-03-11T04:24:22;1.40;99.90
16128;DHT22;8168;49.036;7.690;2023-03-11T04:26:53;1.40;99.90
16128;DHT22;8168;49.036;7.690;2023-03-11T04:29:23;1.40;99.90
16128;DHT22;8168;49.036;7.690;2023-03-11T04:31:54;1.40;99.90
16128;DHT22;8168;49.036;7.690;2023-03-11T04:34:24;1.40;99.90
16128;DHT22;8168;49.036;7.690;2023-03-11T04:36:55;1.40;99.90
16128;DHT22;8168;49.036;7.690;2023-03-11T04:39:25;1.40;99.90
16128;DHT22;8168;49.036;7.690;2023-03-11T04:41:56;1.30;99.90
16128;DHT22;8168;49.036;7.690;2023-03-11T04:44:27;1.20;99.90
16128;DHT22;8168;49.036;7.690;2023-03-11T04:46:57;-1.40;99.90
16128;DHT22;8168;49.036;7.690;2023-03-11T04:49:28;1.10;99.90
16128;DHT22;8168;49.036;7.690;2023-03-11T04:51:59;1.10;99.90
16128;DHT22;8168;49.036;7.690;2023-03-11T04:54:29;1.10;99.90
16128;DHT22;8168;49.036;7.690;2023-03-11T04:57:00;1.10;99.90
16128;DHT22;8168;49.036;7.690;2023-03-11T04:59:30;1.00;99.90
16128;DHT22;8168;49.036;7.690;2023-03-11T05:02:01;1.00;99.90
16128;DHT22;8168;49.036;7.690;2023-03-11T05:04:32;1.00;99.90
16128;DHT22;8168;49.036;7.690;2023-03-11T05:07:02;1.00;99.90
16128;DHT22;8168;49.036;7.690;2023-03-11T05:09:34;1.60;99.90
16128;DHT22;8168;49.036;7.690;2023-03-11T05:12:05;1.00;99.90
16128;DHT22;8168;49.036;7.690;2023-03-11T05:14:36;1.00;99.90
16128;DHT22;8168;49.036;7.690;2023-03-11T05:17:07;1.00;99.90
16128;DHT22;8168;49.036;7.690;2023-03-11T05:19:39;0.90;99.90
16128;DHT22;8168;49.036;7.690;2023-03-11T05:22:10;0.90;99.90
16128;DHT22;8168;49.036;7.690;2023-03-11T05:24:41;0.90;99.90
16128;DHT22;8168;49.036;7.690;2023-03-11T05:27:12;0.90;99.90
16128;DHT22;8168;49.036;7.690;2023-03-11T05:29:43;0.90;99.90
16128;DHT22;8168;49.036;7.690;2023-03-11T05:32:14;0.80;99.90
16128;DHT22;8168;49.036;7.690;2023-03-11T05:34:45;0.80;99.90
16128;DHT22;8168;49.036;7.690;2023-03-11T05:37:16;0.80;99.90
16128;DHT22;8168;49.036;7.690;2023-03-11T05:39:46;0.80;99.90
16128;DHT22;8168;49.036;7.690;2023-03-11T05:42:17;0.80;99.90
16128;DHT22;8168;49.036;7.690;2023-03-11T05:44:48;0.70;99.90
16128;DHT22;8168;49.036;7.690;2023-03-11T05:47:18;0.70;99.90
16128;DHT22;8168;49.036;7.690;2023-03-11T05:49:49;0.70;99.90
16128;DHT22;8168;49.036;7.690;2023-03-11T05:52:19;0.70;99.90
16128;DHT22;8168;49.036;7.690;2023-03-11T05:54:50;0.70;99.90
16128;DHT22;8168;49.036;7.690;2023-03-11T05:57:21;0.60;99.90
16128;DHT22;8168;49.036;7.690;2023-03-11T05:59:52;1.00;99.90
16128;DHT22;8168;49.036;7.690;2023-03-11T06:02:23;0.60;99.90
16128;DHT22;8168;49.036;7.690;2023-03-11T06:04:53;0.60;99.90
16128;DHT22;8168;49.036;7.690;2023-03-11T06:07:24;0.60;99.90
16128;DHT22;8168;49.036;7.690;2023-03-11T06:09:54;0.60;99.90
16128;DHT22;8168;49.036;7.690;2023-03-11T06:12:25;0.60;99.90
16128;DHT22;8168;49.036;7.690;2023-03-11T06:14:55;0.50;99.90
16128;DHT22;8168;49.036;7.690;2023-03-11T06:17:26;0.50;99.90
16128;DHT22;8168;49.036;7.690;2023-03-11T06:19:57;0.60;99.90
16128;DHT22;8168;49.036;7.690;2023-03-11T06:22:27;0.50;99.90
16128;DHT22;8168;49.036;7.690;2023-03-11T06:24:58;0.50;99.90
16128;DHT22;8168;49.036;7.690;2023-03-11T06:27:28;0.50;99.90
16128;DHT22;8168;49.036;7.690;2023-03-11T06:29:59;0.60;99.90
16128;DHT22;8168;49.036;7.690;2023-03-11T06:32:30;0.60;99.90
16128;DHT22;8168;49.036;7.690;2023-03-11T06:35:00;0.70;99.90
16128;DHT22;8168;49.036;7.690;2023-03-11T06:37:31;0.70;99.90
16128;DHT22;8168;49.036;7.690;2023-03-11T06:40:06;0.80;99.90
16128;DHT22;8168;49.036;7.690;2023-03-11T06:42:37;0.80;99.90
16128;DHT22;8168;49.036;7.690;2023-03-11T06:45:08;0.80;99.90
16128;DHT22;8168;49.036;7.690;2023-03-11T06:47:39;0.90;99.90
16128;DHT22;8168;49.036;7.690;2023-03-11T06:50:10;0.90;99.90
16128;DHT22;8168;49.036;7.690;2023-03-11T06:52:41;1.00;99.90
16128;DHT22;8168;49.036;7.690;2023-03-11T06:55:12;1.00;99.90
16128;DHT22;8168;49.036;7.690;2023-03-11T06:57:45;0.90;99.90
16128;DHT22;8168;49.036;7.690;2023-03-11T07:00:16;0.90;99.90
16128;DHT22;8168;49.036;7.690;2023-03-11T07:02:47;0.90;99.90
16128;DHT22;8168;49.036;7.690;2023-03-11T07:05:18;0.80;99.90
16128;DHT22;8168;49.036;7.690;2023-03-11T07:07:52;0.90;99.90
16128;DHT22;8168;49.036;7.690;2023-03-11T07:10:23;1.00;99.90
16128;DHT22;8168;49.036;7.690;2023-03-11T07:12:54;1.00;99.90
16128;DHT22;8168;49.036;7.690;2023-03-11T07:15:25;1.10;99.90
16128;DHT22;8168;49.036;7.690;2023-03-11T07:17:55;1.00;99.90
16128;DHT22;8168;49.036;7.690;2023-03-11T07:20:26;1.10;99.90
16128;DHT22;8168;49.036;7.690;2023-03-11T07:22:56;1.20;99.90
16128;DHT22;8168;49.036;7.690;2023-03-11T07:25:27;1.20;99.90
16128;DHT22;8168;49.036;7.690;2023-03-11T07:27:58;1.30;99.90
16128;DHT22;8168;49.036;7.690;2023-03-11T07:30:28;1.30;99.90
16128;DHT22;8168;49.036;7.690;2023-03-11T07:32:59;1.40;99.90
16128;DHT22;8168;49.036;7.690;2023-03-11T07:35:29;1.40;99.90
16128;DHT22;8168;49.036;7.690;2023-03-11T07:38:00;1.40;99.90
16128;DHT22;8168;49.036;7.690;2023-03-11T07:40:31;1.40;99.90
16128;DHT22;8168;49.036;7.690;2023-03-11T07:43:01;1.50;99.90
16128;DHT22;8168;49.036;7.690;2023-03-11T07:45:32;1.60;99.90
16128;DHT22;8168;49.036;7.690;2023-03-11T07:48:03;1.70;99.90
16128;DHT22;8168;49.036;7.690;2023-03-11T07:50:34;1.70;99.90
16128;DHT22;8168;49.036;7.690;2023-03-11T07:53:06;1.80;99.90
16128;DHT22;8168;49.036;7.690;2023-03-11T07:55:36;1.80;99.90
16128;DHT22;8168;49.036;7.690;2023-03-11T07:58:07;1.90;99.90
16128;DHT22;8168;49.036;7.690;2023-03-11T08:00:37;1.90;99.90
16128;DHT22;8168;49.036;7.690;2023-03-11T08:03:08;1.90;99.90
16128;DHT22;8168;49.036;7.690;2023-03-11T08:05:38;2.00;99.90
16128;DHT22;8168;49.036;7.690;2023-03-11T08:08:09;2.00;99.90
16128;DHT22;8168;49.036;7.690;2023-03-11T08:10:40;2.00;99.90
16128;DHT22;8168;49.036;7.690;2023-03-11T08:13:10;2.00;99.90
16128;DHT22;8168;49.036;7.690;2023-03-11T08:15:41;2.10;99.90
16128;DHT22;8168;49.036;7.690;2023-03-11T08:18:12;2.20;99.90
16128;DHT22;8168;49.036;7.690;2023-03-11T08:20:42;2.20;99.90
16128;DHT22;8168;49.036;7.690;2023-03-11T08:23:14;2.30;99.90
16128;DHT22;8168;49.036;7.690;2023-03-11T08:25:45;2.30;99.90
16128;DHT22;8168;49.036;7.690;2023-03-11T08:28:16;2.40;99.90
16128;DHT22;8168;49.036;7.690;2023-03-11T08:30:47;2.50;99.90
16128;DHT22;8168;49.036;7.690;2023-03-11T08:33:17;2.50;99.90
16128;DHT22;8168;49.036;7.690;2023-03-11T08:35:48;2.40;99.90
16128;DHT22;8168;49.036;7.690;2023-03-11T08:38:19;2.50;99.90
16128;DHT22;8168;49.036;7.690;2023-03-11T08:40:49;2.60;99.90
16128;DHT22;8168;49.036;7.690;2023-03-11T08:43:20;2.60;99.90
16128;DHT22;8168;49.036;7.690;2023-03-11T08:45:50;2.60;99.90
16128;DHT22;8168;49.036;7.690;2023-03-11T08:48:21;2.70;99.90
16128;DHT22;8168;49.036;7.690;2023-03-11T08:50:54;2.70;99.90
16128;DHT22;8168;49.036;7.690;2023-03-11T08:53:25;2.80;99.90
16128;DHT22;8168;49.036;7.690;2023-03-11T08:55:56;2.80;99.90
16128;DHT22;8168;49.036;7.690;2023-03-11T08:58:26;2.90;99.90
16128;DHT22;8168;49.036;7.690;2023-03-11T09:00:58;3.00;99.90
16128;DHT22;8168;49.036;7.690;2023-03-11T09:03:33;3.00;99.90
16128;DHT22;8168;49.036;7.690;2023-03-11T09:06:13;3.00;99.90
16128;DHT22;8168;49.036;7.690;2023-03-11T09:08:45;3.00;99.90
16128;DHT22;8168;49.036;7.690;2023-03-11T09:11:17;3.10;99.90
16128;DHT22;8168;49.036;7.690;2023-03-11T09:13:48;3.10;99.90
16128;DHT22;8168;49.036;7.690;2023-03-11T09:16:22;3.10;99.90
16128;DHT22;8168;49.036;7.690;2023-03-11T09:18:53;3.20;99.90
16128;DHT22;8168;49.036;7.690;2023-03-11T09:21:24;3.30;99.90
16128;DHT22;8168;49.036;7.690;2023-03-11T09:23:55;3.50;99.90
16128;DHT22;8168;49.036;7.690;2023-03-11T09:26:26;3.60;99.90
16128;DHT22;8168;49.036;7.690;2023-03-11T09:28:56;3.50;99.90
16128;DHT22;8168;49.036;7.690;2023-03-11T09:31:27;3.50;99.90
16128;DHT22;8168;49.036;7.690;2023-03-11T09:33:58;3.30;99.90
16128;DHT22;8168;49.036;7.690;2023-03-11T09:36:28;3.40;99.90
16128;DHT22;8168;49.036;7.690;2023-03-11T09:39:00;3.50;99.90
16128;DHT22;8168;49.036;7.690;2023-03-11T09:52:14;4.20;99.90
16128;DHT22;8168;49.036;7.690;2023-03-11T09:54:51;4.60;99.90
16128;DHT22;8168;49.036;7.690;2023-03-11T09:57:27;4.20;99.90
16128;DHT22;8168;49.036;7.690;2023-03-11T10:00:01;4.40;99.90
16128;DHT22;8168;49.036;7.690;2023-03-11T10:02:35;4.50;99.90
16128;DHT22;8168;49.036;7.690;2023-03-11T10:05:26;4.50;99.90
16128;DHT22;8168;49.036;7.690;2023-03-11T10:11:10;4.40;99.90
16128;DHT22;8168;49.036;7.690;2023-03-11T10:24:46;4.80;99.90
16128;DHT22;8168;49.036;7.690;2023-03-11T10:27:24;5.00;99.90
16128;DHT22;8168;49.036;7.690;2023-03-11T10:33:25;5.20;99.90
16128;DHT22;8168;49.036;7.690;2023-03-11T10:36:04;5.30;99.90
16128;DHT22;8168;49.036;7.690;2023-03-11T10:38:40;5.50;99.90
16128;DHT22;8168;49.036;7.690;2023-03-11T10:42:00;5.60;99.90
16128;DHT22;8168;49.036;7.690;2023-03-11T10:46:43;5.90;99.30
16128;DHT22;8168;49.036;7.690;2023-03-11T10:49:15;6.20;99.90
16128;DHT22;8168;49.036;7.690;2023-03-11T10:51:49;6.50;99.90
16128;DHT22;8168;49.036;7.690;2023-03-11T10:54:27;6.60;96.30
16128;DHT22;8168;49.036;7.690;2023-03-11T10:57:21;6.50;95.90
16128;DHT22;8168;49.036;7.690;2023-03-11T10:59:57;6.40;93.80
16128;DHT22;8168;49.036;7.690;2023-03-11T11:03:10;6.50;94.40
16128;DHT22;8168;49.036;7.690;2023-03-11T11:05:28;6.70;93.30
16128;DHT22;8168;49.036;7.690;2023-03-11T11:08:05;6.60;89.10
16128;DHT22;8168;49.036;7.690;2023-03-11T11:10:36;6.70;90.90
16128;DHT22;8168;49.036;7.690;2023-03-11T11:13:20;6.80;91.30
16128;DHT22;8168;49.036;7.690;2023-03-11T11:18:46;7.20;91.70
16128;DHT22;8168;49.036;7.690;2023-03-11T11:21:32;7.20;89.90
16128;DHT22;8168;49.036;7.690;2023-03-11T11:26:39;7.30;86.60
16128;DHT22;8168;49.036;7.690;2023-03-11T11:31:43;6.80;85.10
16128;DHT22;8168;49.036;7.690;2023-03-11T11:36:58;6.80;89.20
16128;DHT22;8168;49.036;7.690;2023-03-11T11:39:48;6.90;90.70
16128;DHT22;8168;49.036;7.690;2023-03-11T11:42:21;6.80;90.90
16128;DHT22;8168;49.036;7.690;2023-03-11T11:45:02;6.90;91.40
16128;DHT22;8168;49.036;7.690;2023-03-11T11:47:34;7.10;88.90
16128;DHT22;8168;49.036;7.690;2023-03-11T11:50:33;6.90;89.10
16128;DHT22;8168;49.036;7.690;2023-03-11T11:53:24;7.00;93.30
16128;DHT22;8168;49.036;7.690;2023-03-11T11:55:56;7.30;91.50
16128;DHT22;8168;49.036;7.690;2023-03-11T11:58:27;8.00;92.90
16128;DHT22;8168;49.036;7.690;2023-03-11T12:06:49;7.60;89.20
16128;DHT22;8168;49.036;7.690;2023-03-11T12:09:31;7.50;86.70
16128;DHT22;8168;49.036;7.690;2023-03-11T12:15:05;7.40;87.50
16128;DHT22;8168;49.036;7.690;2023-03-11T12:17:42;7.40;87.50
16128;DHT22;8168;49.036;7.690;2023-03-11T12:20:22;6.60;88.90
16128;DHT22;8168;49.036;7.690;2023-03-11T12:23:00;7.80;90.60
16128;DHT22;8168;49.036;7.690;2023-03-11T12:25:56;7.90;90.80
16128;DHT22;8168;49.036;7.690;2023-03-11T12:31:12;7.80;85.20
16128;DHT22;8168;49.036;7.690;2023-03-11T12:33:48;7.90;89.50
16128;DHT22;8168;49.036;7.690;2023-03-11T12:36:31;8.00;88.10
16128;DHT22;8168;49.036;7.690;2023-03-11T12:39:05;7.80;85.70
16128;DHT22;8168;49.036;7.690;2023-03-11T12:41:38;7.80;86.00
16128;DHT22;8168;49.036;7.690;2023-03-11T12:52:04;8.20;86.90
16128;DHT22;8168;49.036;7.690;2023-03-11T12:54:37;8.30;86.30
16128;DHT22;8168;49.036;7.690;2023-03-11T13:08:21;8.30;89.90
16128;DHT22;8168;49.036;7.690;2023-03-11T13:10:54;8.20;86.20
16128;DHT22;8168;49.036;7.690;2023-03-11T13:18:46;8.30;82.90
16128;DHT22;8168;49.036;7.690;2023-03-11T13:37:38;8.20;79.20
16128;DHT22;8168;49.036;7.690;2023-03-11T13:40:27;8.20;76.80
16128;DHT22;8168;49.036;7.690;2023-03-11T13:43:07;8.20;75.40
16128;DHT22;8168;49.036;7.690;2023-03-11T13:45:40;8.10;74.70
16128;DHT22;8168;49.036;7.690;2023-03-11T13:48:29;8.00;78.90
16128;DHT22;8168;49.036;7.690;2023-03-11T13:51:04;8.00;80.30
16128;DHT22;8168;49.036;7.690;2023-03-11T13:53:44;8.10;76.70
16128;DHT22;8168;49.036;7.690;2023-03-11T13:56:30;8.20;74.70
16128;DHT22;8168;49.036;7.690;2023-03-11T13:59:34;8.10;74.70
16128;DHT22;8168;49.036;7.690;2023-03-11T14:02:15;8.20;71.60
16128;DHT22;8168;49.036;7.690;2023-03-11T14:04:49;8.20;71.20
16128;DHT22;8168;49.036;7.690;2023-03-11T14:07:27;8.10;71.50
16128;DHT22;8168;49.036;7.690;2023-03-11T14:13:13;7.80;74.50
16128;DHT22;8168;49.036;7.690;2023-03-11T14:15:53;7.80;77.70
16128;DHT22;8168;49.036;7.690;2023-03-11T14:18:30;7.80;75.10
16128;DHT22;8168;49.036;7.690;2023-03-11T14:21:03;7.90;75.90
16128;DHT22;8168;49.036;7.690;2023-03-11T14:23:39;8.10;74.30
16128;DHT22;8168;49.036;7.690;2023-03-11T14:28:59;8.20;73.50
16128;DHT22;8168;49.036;7.690;2023-03-11T14:31:33;8.40;71.80
16128;DHT22;8168;49.036;7.690;2023-03-11T14:36:58;8.30;75.00
16128;DHT22;8168;49.036;7.690;2023-03-11T14:39:32;8.10;73.70
16128;DHT22;8168;49.036;7.690;2023-03-11T14:44:42;8.00;74.00
16128;DHT22;8168;49.036;7.690;2023-03-11T14:47:33;7.80;73.00
16128;DHT22;8168;49.036;7.690;2023-03-11T14:50:25;7.70;73.30
16128;DHT22;8168;49.036;7.690;2023-03-11T14:53:14;7.50;75.70
16128;DHT22;8168;49.036;7.690;2023-03-11T14:55:50;7.60;75.20
16128;DHT22;8168;49.036;7.690;2023-03-11T14:58:42;7.80;72.90
16128;DHT22;8168;49.036;7.690;2023-03-11T15:01:24;7.70;73.40
16128;DHT22;8168;49.036;7.690;2023-03-11T15:04:04;7.30;73.80
16128;DHT22;8168;49.036;7.690;2023-03-11T15:06:42;7.30;75.40
16128;DHT22;8168;49.036;7.690;2023-03-11T15:09:14;7.40;75.40
16128;DHT22;8168;49.036;7.690;2023-03-11T15:11:54;7.90;76.50
16128;DHT22;8168;49.036;7.690;2023-03-11T15:14:32;7.70;75.20
16128;DHT22;8168;49.036;7.690;2023-03-11T15:17:18;7.60;73.00
16128;DHT22;8168;49.036;7.690;2023-03-11T15:19:56;7.50;72.20
16128;DHT22;8168;49.036;7.690;2023-03-11T15:25:00;7.20;75.00
16128;DHT22;8168;49.036;7.690;2023-03-11T15:27:34;7.20;74.30
16128;DHT22;8168;49.036;7.690;2023-03-11T15:32:49;7.30;74.60
16128;DHT22;8168;49.036;7.690;2023-03-11T15:35:26;7.70;73.80
16128;DHT22;8168;49.036;7.690;2023-03-11T15:38:20;7.30;74.10
16128;DHT22;8168;49.036;7.690;2023-03-11T15:40:56;7.50;74.20
16128;DHT22;8168;49.036;7.690;2023-03-11T15:43:44;7.10;75.30
16128;DHT22;8168;49.036;7.690;2023-03-11T15:46:16;7.10;75.90
16128;DHT22;8168;49.036;7.690;2023-03-11T15:48:46;7.10;76.20
16128;DHT22;8168;49.036;7.690;2023-03-11T15:51:18;7.10;76.60
16128;DHT22;8168;49.036;7.690;2023-03-11T15:53:49;7.00;76.10
16128;DHT22;8168;49.036;7.690;2023-03-11T15:56:23;6.90;75.30
16128;DHT22;8168;49.036;7.690;2023-03-11T15:58:54;6.90;76.10
16128;DHT22;8168;49.036;7.690;2023-03-11T16:01:25;6.80;76.90
16128;DHT22;8168;49.036;7.690;2023-03-11T16:03:58;6.90;77.60
16128;DHT22;8168;49.036;7.690;2023-03-11T16:06:28;6.90;76.80
16128;DHT22;8168;49.036;7.690;2023-03-11T16:08:59;6.90;77.50
16128;DHT22;8168;49.036;7.690;2023-03-11T16:11:30;6.90;77.90
16128;DHT22;8168;49.036;7.690;2023-03-11T16:14:02;6.90;76.90
16128;DHT22;8168;49.036;7.690;2023-03-11T16:16:33;6.90;78.30
16128;DHT22;8168;49.036;7.690;2023-03-11T16:19:03;6.90;77.30
16128;DHT22;8168;49.036;7.690;2023-03-11T16:21:46;6.90;76.80
16128;DHT22;8168;49.036;7.690;2023-03-11T16:24:21;6.90;76.90
16128;DHT22;8168;49.036;7.690;2023-03-11T16:26:52;6.80;76.80
16128;DHT22;8168;49.036;7.690;2023-03-11T16:29:23;6.70;77.40
16128;DHT22;8168;49.036;7.690;2023-03-11T16:31:56;6.70;78.00
16128;DHT22;8168;49.036;7.690;2023-03-11T16:34:26;6.70;78.30
16128;DHT22;8168;49.036;7.690;2023-03-11T16:36:57;6.80;78.10
16128;DHT22;8168;49.036;7.690;2023-03-11T16:39:28;6.80;78.70
16128;DHT22;8168;49.036;7.690;2023-03-11T16:41:58;6.70;78.60
16128;DHT22;8168;49.036;7.690;2023-03-11T16:44:29;6.80;78.90
16128;DHT22;8168;49.036;7.690;2023-03-11T16:47:00;6.60;78.80
16128;DHT22;8168;49.036;7.690;2023-03-11T16:49:31;6.60;79.40
16128;DHT22;8168;49.036;7.690;2023-03-11T16:52:01;6.60;78.90
16128;DHT22;8168;49.036;7.690;2023-03-11T16:54:32;6.60;78.90
16128;DHT22;8168;49.036;7.690;2023-03-11T16:57:04;6.60;79.30
16128;DHT22;8168;49.036;7.690;2023-03-11T16:59:34;6.70;78.20
16128;DHT22;8168;49.036;7.690;2023-03-11T17:02:05;6.60;77.70
16128;DHT22;8168;49.036;7.690;2023-03-11T17:04:36;6.60;78.50
16128;DHT22;8168;49.036;7.690;2023-03-11T17:07:07;6.80;78.70
16128;DHT22;8168;49.036;7.690;2023-03-11T17:09:38;6.60;78.10
16128;DHT22;8168;49.036;7.690;2023-03-11T17:12:09;6.50;78.20
16128;DHT22;8168;49.036;7.690;2023-03-11T17:14:42;6.50;77.80
16128;DHT22;8168;49.036;7.690;2023-03-11T17:17:13;6.70;79.60
16128;DHT22;8168;49.036;7.690;2023-03-11T17:19:43;6.50;80.30
16128;DHT22;8168;49.036;7.690;2023-03-11T17:22:18;6.50;81.10
16128;DHT22;8168;49.036;7.690;2023-03-11T17:24:48;6.40;81.60
16128;DHT22;8168;49.036;7.690;2023-03-11T17:27:19;6.40;82.10
16128;DHT22;8168;49.036;7.690;2023-03-11T17:29:49;6.80;84.00
16128;DHT22;8168;49.036;7.690;2023-03-11T17:32:20;6.20;84.10
16128;DHT22;8168;49.036;7.690;2023-03-11T17:34:51;6.20;84.40
16128;DHT22;8168;49.036;7.690;2023-03-11T17:37:21;6.20;84.70
16128;DHT22;8168;49.036;7.690;2023-03-11T17:39:52;6.00;85.50
16128;DHT22;8168;49.036;7.690;2023-03-11T17:42:23;6.00;86.10
16128;DHT22;8168;49.036;7.690;2023-03-11T17:44:54;6.00;86.40
16128;DHT22;8168;49.036;7.690;2023-03-11T17:47:25;5.80;87.40
16128;DHT22;8168;49.036;7.690;2023-03-11T17:49:56;5.80;88.30
16128;DHT22;8168;49.036;7.690;2023-03-11T17:52:26;5.70;88.60
16128;DHT22;8168;49.036;7.690;2023-03-11T17:54:57;5.60;89.10
16128;DHT22;8168;49.036;7.690;2023-03-11T17:57:27;5.60;89.60
16128;DHT22;8168;49.036;7.690;2023-03-11T17:59:58;5.50;90.00
16128;DHT22;8168;49.036;7.690;2023-03-11T18:02:33;5.50;90.40
16128;DHT22;8168;49.036;7.690;2023-03-11T18:05:04;5.50;90.70
16128;DHT22;8168;49.036;7.690;2023-03-11T18:07:36;5.40;91.40
16128;DHT22;8168;49.036;7.690;2023-03-11T18:10:11;5.40;92.50
16128;DHT22;8168;49.036;7.690;2023-03-11T18:12:43;5.40;92.30
16128;DHT22;8168;49.036;7.690;2023-03-11T18:15:14;5.30;92.30
16128;DHT22;8168;49.036;7.690;2023-03-11T18:17:48;5.30;92.50
16128;DHT22;8168;49.036;7.690;2023-03-11T18:20:19;5.20;92.70
16128;DHT22;8168;49.036;7.690;2023-03-11T18:22:50;5.10;92.60
16128;DHT22;8168;49.036;7.690;2023-03-11T18:25:21;5.10;93.00
16128;DHT22;8168;49.036;7.690;2023-03-11T18:27:51;5.00;93.20
16128;DHT22;8168;49.036;7.690;2023-03-11T18:30:22;4.90;93.30